GTAJB EGPH-EGPN

Flight info

Callsign GTAJB
Flight time N/A
Altitude 5000
Route VP483
Aircraft H145/L-SDFGRY/C

Departure

Time 2026-04-22 19:20
Airport Edinburgh Airport (EGPH)

Arrival

Time N/A
Airport Dundee Airport (EGPN)
Time Latitude Longitude Altitude Speed Heading
2026-04-22 19:07 55.95233 -3.35706 113 ft 0 kts 30°
2026-04-22 19:07 55.95232 -3.35706 113 ft 0 kts 30°
2026-04-22 19:07 55.95232 -3.35707 113 ft 0 kts 30°
2026-04-22 19:15 55.95232 -3.35708 113 ft 0 kts 30°
2026-04-22 19:15 55.95231 -3.35708 113 ft 0 kts 30°
2026-04-22 19:18 55.95226 -3.35712 116 ft 3 kts 335°
2026-04-22 19:19 55.95231 -3.35826 123 ft 11 kts 284°
2026-04-22 19:19 55.95223 -3.36012 115 ft 18 kts 250°
2026-04-22 19:19 55.95180 -3.36222 132 ft 15 kts 269°
2026-04-22 19:19 55.95206 -3.36349 134 ft 11 kts 339°
2026-04-22 19:20 55.95299 -3.36370 154 ft 16 kts 62°
2026-04-22 19:20 55.95371 -3.36055 306 ft 43 kts 64°
2026-04-22 19:20 55.95568 -3.35400 540 ft 76 kts 61°
2026-04-22 19:20 55.95881 -3.34427 779 ft 102 kts 60°
2026-04-22 19:21 55.96257 -3.33336 1004 ft 98 kts 54°
2026-04-22 19:21 55.96807 -3.32773 1195 ft 99 kts 20°
2026-04-22 19:21 55.97526 -3.33002 1384 ft 111 kts 342°
2026-04-22 19:21 55.98187 -3.33734 1564 ft 111 kts 341°
2026-04-22 19:22 55.98904 -3.33804 1748 ft 101 kts 26°
2026-04-22 19:22 55.99442 -3.33304 1926 ft 95 kts 36°
2026-04-22 19:22 56.00041 -3.32750 2108 ft 98 kts 35°
2026-04-22 19:22 56.00656 -3.32190 2298 ft 100 kts 34°
2026-04-22 19:23 56.01282 -3.31625 2478 ft 101 kts 34°
2026-04-22 19:23 56.01488 -3.31439 2535 ft 102 kts 34°
2026-04-22 19:23 56.02204 -3.30652 2699 ft 101 kts 43°
2026-04-22 19:23 56.02763 -3.29885 2578 ft 102 kts 44°
2026-04-22 19:24 56.03312 -3.29123 2454 ft 101 kts 44°
2026-04-22 19:24 56.03868 -3.28347 2316 ft 101 kts 44°
2026-04-22 19:24 56.04423 -3.27572 2180 ft 102 kts 44°
2026-04-22 19:24 56.04975 -3.26789 2051 ft 100 kts 44°
2026-04-22 19:25 56.05525 -3.26009 1917 ft 99 kts 44°
2026-04-22 19:25 56.06068 -3.25257 1778 ft 101 kts 44°
2026-04-22 19:25 56.06621 -3.24485 1631 ft 101 kts 44°
2026-04-22 19:25 56.07169 -3.23714 1557 ft 100 kts 45°
2026-04-22 19:26 56.07708 -3.22927 1547 ft 100 kts 49°
2026-04-22 19:26 56.08160 -3.22004 1538 ft 98 kts 54°
2026-04-22 19:26 56.08585 -3.21057 1520 ft 98 kts 56°
2026-04-22 19:26 56.09008 -3.20114 1526 ft 96 kts 55°
2026-04-22 19:27 56.09430 -3.19167 1518 ft 98 kts 56°
2026-04-22 19:27 56.09855 -3.18223 1523 ft 98 kts 56°
2026-04-22 19:27 56.10280 -3.17267 1524 ft 98 kts 56°
2026-04-22 19:27 56.10701 -3.16310 1523 ft 97 kts 56°
2026-04-22 19:28 56.11130 -3.15356 1528 ft 99 kts 56°
2026-04-22 19:28 56.11565 -3.14401 1524 ft 99 kts 56°
2026-04-22 19:28 56.11990 -3.13446 1528 ft 97 kts 55°
2026-04-22 19:28 56.12403 -3.12486 1524 ft 98 kts 56°
2026-04-22 19:29 56.12825 -3.11511 1526 ft 100 kts 56°
2026-04-22 19:29 56.13265 -3.10548 1530 ft 100 kts 51°
2026-04-22 19:29 56.13762 -3.09689 1529 ft 99 kts 47°
2026-04-22 19:29 56.14256 -3.08838 1528 ft 100 kts 50°
2026-04-22 19:30 56.14580 -3.08242 1525 ft 100 kts 50°
2026-04-22 19:30 56.15219 -3.07050 1548 ft 98 kts 50°
2026-04-22 19:30 56.15690 -3.06163 1538 ft 99 kts 51°
2026-04-22 19:30 56.16166 -3.05278 1537 ft 99 kts 51°
2026-04-22 19:31 56.16562 -3.04546 1545 ft 100 kts 51°
2026-04-22 19:31 56.17060 -3.03621 1548 ft 101 kts 50°
2026-04-22 19:31 56.17539 -3.02722 1542 ft 99 kts 51°
2026-04-22 19:31 56.18012 -3.01839 1540 ft 100 kts 50°
2026-04-22 19:32 56.18494 -3.00943 1539 ft 100 kts 51°
2026-04-22 19:32 56.18978 -3.00046 1544 ft 100 kts 51°
2026-04-22 19:32 56.19471 -2.99141 1544 ft 102 kts 50°
2026-04-22 19:32 56.19962 -2.98234 1538 ft 102 kts 51°
2026-04-22 19:33 56.20451 -2.97330 1547 ft 100 kts 50°
2026-04-22 19:33 56.20937 -2.96423 1546 ft 101 kts 51°
2026-04-22 19:33 56.21420 -2.95530 1544 ft 99 kts 51°
2026-04-22 19:33 56.21903 -2.94648 1539 ft 100 kts 50°
2026-04-22 19:34 56.22390 -2.93730 1545 ft 102 kts 51°
2026-04-22 19:34 56.22879 -2.92823 1546 ft 100 kts 51°
2026-04-22 19:34 56.23281 -2.92087 1547 ft 102 kts 50°
2026-04-22 19:34 56.23763 -2.91178 1548 ft 100 kts 50°
2026-04-22 19:35 56.24203 -2.90353 1538 ft 100 kts 51°
2026-04-22 19:35 56.24698 -2.89443 1546 ft 102 kts 51°
2026-04-22 19:35 56.25021 -2.88855 1547 ft 101 kts 50°
2026-04-22 19:35 56.25639 -2.87641 1534 ft 102 kts 54°
2026-04-22 19:36 56.26092 -2.86652 1551 ft 101 kts 54°
2026-04-22 19:36 56.26535 -2.85674 1547 ft 101 kts 55°
2026-04-22 19:36 56.26972 -2.84702 1546 ft 99 kts 54°
2026-04-22 19:36 56.27404 -2.83740 1545 ft 99 kts 54°
2026-04-22 19:37 56.27838 -2.82777 1530 ft 101 kts 55°
2026-04-22 19:37 56.28282 -2.81810 1433 ft 99 kts 55°
2026-04-22 19:37 56.28713 -2.80872 1318 ft 95 kts 54°
2026-04-22 19:37 56.28988 -2.80293 1250 ft 77 kts 54°
2026-04-22 19:38 56.29319 -2.79669 1089 ft 70 kts 53°
2026-04-22 19:38 56.29652 -2.79013 953 ft 71 kts 54°
2026-04-22 19:38 56.29973 -2.78354 846 ft 70 kts 54°
2026-04-22 19:38 56.30292 -2.77700 646 ft 70 kts 53°
2026-04-22 19:39 56.30601 -2.77078 432 ft 50 kts 54°
2026-04-22 19:39 56.30812 -2.76759 688 ft 51 kts 40°
2026-04-22 19:39 56.31031 -2.76399 675 ft 33 kts 56°
2026-04-22 19:39 56.31182 -2.75987 635 ft 39 kts 66°
2026-04-22 19:40 56.31336 -2.75579 681 ft 43 kts 50°
2026-04-22 19:40 56.31607 -2.75344 591 ft 35 kts 33°
2026-04-22 19:40 56.31799 -2.75215 483 ft 31 kts 60°
2026-04-22 19:40 56.31943 -2.74792 461 ft 42 kts 59°
2026-04-22 19:41 56.32088 -2.74362 373 ft 36 kts 80°
2026-04-22 19:41 56.32092 -2.74139 359 ft 20 kts 85°
2026-04-22 19:41 56.32111 -2.73905 330 ft 22 kts 85°
2026-04-22 19:41 56.32109 -2.73603 287 ft 23 kts 103°
2026-04-22 19:42 56.32078 -2.73443 236 ft 6 kts 107°
2026-04-22 19:42 56.32064 -2.73365 230 ft 6 kts 92°
2026-04-22 19:42 56.32064 -2.73305 205 ft 0 kts 92°
2026-04-22 19:46 56.32064 -2.73306 205 ft 0 kts 92°